createdAt,value
2023-04-28T00:01:21.669Z,59.90
2023-04-28T00:03:49.882Z,58.50
2023-04-28T00:06:18.101Z,58.50
2023-04-28T00:08:47.560Z,58.80
2023-04-28T00:11:15.641Z,59.00
2023-04-28T00:13:43.692Z,58.80
2023-04-28T00:16:11.819Z,59.70
2023-04-28T00:18:40.066Z,59.10
2023-04-28T00:21:08.656Z,59.00
2023-04-28T00:23:36.831Z,59.20
2023-04-28T00:26:06.349Z,59.70
2023-04-28T00:28:35.078Z,59.20
2023-04-28T00:31:03.857Z,59.20
2023-04-28T00:33:31.969Z,59.30
2023-04-28T00:36:01.808Z,59.30
2023-04-28T00:38:30.158Z,59.70
2023-04-28T00:40:58.369Z,59.60
2023-04-28T00:43:28.014Z,59.70
2023-04-28T00:45:56.460Z,59.70
2023-04-28T00:48:24.855Z,59.50
2023-04-28T00:50:53.102Z,59.30
2023-04-28T00:53:21.365Z,58.10
2023-04-28T00:55:50.266Z,57.40
2023-04-28T00:58:18.429Z,57.60
2023-04-28T01:00:48.011Z,58.00
2023-04-28T01:03:16.945Z,58.50
2023-04-28T01:05:45.414Z,58.40
2023-04-28T01:08:13.636Z,58.80
2023-04-28T01:10:45.748Z,60.10
2023-04-28T01:13:24.679Z,59.40
2023-04-28T01:15:54.637Z,60.60
2023-04-28T01:18:23.112Z,60.00
2023-04-28T01:20:51.623Z,61.10
2023-04-28T01:23:19.738Z,60.40
2023-04-28T01:25:49.209Z,60.80
2023-04-28T01:28:17.659Z,61.70
2023-04-28T01:30:46.187Z,61.90
2023-04-28T01:33:14.345Z,61.40
2023-04-28T01:35:43.246Z,57.70
2023-04-28T01:38:11.913Z,56.70
2023-04-28T01:40:40.189Z,56.30
2023-04-28T01:43:10.007Z,56.30
2023-04-28T01:45:38.163Z,56.60
2023-04-28T01:48:06.838Z,56.30
2023-04-28T01:50:34.970Z,57.00
2023-04-28T01:53:05.891Z,57.70
2023-04-28T01:55:34.050Z,57.00
2023-04-28T01:58:02.305Z,56.90
2023-04-28T02:00:33.467Z,56.60
2023-04-28T02:03:01.657Z,56.80
2023-04-28T02:05:30.047Z,57.40
2023-04-28T02:07:58.194Z,58.20
2023-04-28T02:10:26.878Z,59.20
2023-04-28T02:12:56.088Z,59.40
2023-04-28T02:15:24.215Z,59.30
2023-04-28T02:17:53.759Z,60.80
2023-04-28T02:20:21.961Z,59.60
2023-04-28T02:22:50.120Z,59.70
2023-04-28T02:25:18.519Z,60.70
2023-04-28T02:27:46.729Z,61.90
2023-04-28T02:30:15.131Z,61.70
2023-04-28T02:32:43.434Z,61.30
2023-04-28T02:35:12.918Z,62.30
2023-04-28T02:37:42.334Z,62.10
2023-04-28T02:40:11.230Z,62.80
2023-04-28T02:42:39.391Z,62.50
2023-04-28T02:45:08.466Z,61.70
2023-04-28T02:47:37.088Z,61.70
2023-04-28T02:50:05.817Z,61.70
2023-04-28T02:52:36.840Z,61.90
2023-04-28T02:55:05.241Z,62.40
2023-04-28T02:57:33.724Z,62.90
2023-04-28T03:00:02.271Z,64.00
2023-04-28T03:02:38.093Z,63.60
2023-04-28T03:05:06.981Z,64.20
2023-04-28T03:07:35.141Z,64.60
2023-04-28T03:10:04.836Z,64.90
2023-04-28T03:12:33.232Z,65.10
2023-04-28T03:15:01.899Z,65.50
2023-04-28T03:17:30.157Z,66.60
2023-04-28T03:19:58.437Z,67.40
2023-04-28T03:22:26.648Z,68.00
2023-04-28T03:24:54.837Z,69.10
2023-04-28T03:27:24.876Z,69.50
2023-04-28T03:29:55.248Z,70.30
2023-04-28T03:32:23.598Z,71.00
2023-04-28T03:34:52.123Z,71.40
2023-04-28T03:37:20.330Z,72.00
2023-04-28T03:39:48.607Z,73.40
2023-04-28T03:42:16.809Z,73.20
2023-04-28T03:45:11.326Z,73.60
2023-04-28T03:47:40.065Z,74.70
2023-04-28T03:50:09.396Z,75.50
2023-04-28T03:52:37.586Z,75.60
2023-04-28T03:55:06.325Z,76.30
2023-04-28T03:57:34.791Z,76.30
2023-04-28T04:00:04.007Z,76.50
2023-04-28T04:02:34.400Z,76.60
2023-04-28T04:05:02.822Z,77.30
2023-04-28T04:07:32.059Z,77.20
2023-04-28T04:10:01.882Z,77.90
2023-04-28T04:12:32.006Z,78.10
2023-04-28T04:15:00.717Z,78.70
2023-04-28T04:17:29.179Z,78.70
2023-04-28T04:19:58.744Z,79.40
2023-04-28T04:22:28.410Z,80.90
2023-04-28T04:24:56.702Z,81.20
2023-04-28T04:27:24.853Z,82.50
2023-04-28T04:29:53.366Z,82.20
2023-04-28T04:32:22.138Z,83.40
2023-04-28T04:34:51.240Z,84.00
2023-04-28T04:37:20.861Z,85.00
2023-04-28T04:40:01.581Z,85.30
2023-04-28T04:42:34.363Z,85.50
2023-04-28T04:45:22.974Z,86.10
2023-04-28T04:47:53.666Z,86.40
2023-04-28T04:50:22.413Z,87.60
2023-04-28T04:52:54.503Z,88.30
2023-04-28T04:55:22.724Z,88.60
2023-04-28T04:57:50.992Z,90.10
2023-04-28T05:00:42.413Z,89.90
2023-04-28T05:03:12.415Z,90.40
2023-04-28T05:05:43.211Z,90.60
2023-04-28T05:08:32.772Z,91.60
2023-04-28T05:11:01.044Z,91.10
2023-04-28T05:13:29.356Z,91.30
2023-04-28T05:16:02.512Z,91.20
2023-04-28T05:18:47.064Z,90.90
2023-04-28T05:21:16.435Z,90.70
2023-04-28T05:23:46.118Z,91.60
2023-04-28T05:26:14.420Z,91.10
2023-04-28T05:28:43.370Z,90.90
2023-04-28T05:31:11.564Z,91.10
2023-04-28T05:33:39.708Z,91.30
2023-04-28T05:36:08.488Z,91.60
2023-04-28T05:38:37.166Z,92.10
2023-04-28T05:41:07.154Z,92.30
2023-04-28T05:43:36.043Z,92.50
2023-04-28T05:46:09.691Z,92.70
2023-04-28T05:48:43.119Z,93.00
2023-04-28T05:51:12.476Z,93.00
2023-04-28T05:53:40.740Z,93.00
2023-04-28T05:56:10.838Z,93.50
2023-04-28T05:58:39.445Z,94.20
2023-04-28T06:01:08.196Z,93.20
2023-04-28T06:03:37.465Z,92.80
2023-04-28T06:06:09.651Z,93.30
2023-04-28T06:08:38.817Z,93.50
2023-04-28T06:11:07.354Z,93.60
2023-04-28T06:13:37.302Z,93.40
2023-04-28T06:16:06.525Z,93.20
2023-04-28T06:18:35.805Z,93.10
2023-04-28T06:21:05.433Z,92.90
2023-04-28T06:23:33.593Z,92.00
2023-04-28T06:26:01.820Z,92.10
2023-04-28T06:28:30.775Z,92.00
2023-04-28T06:31:00.616Z,92.10
2023-04-28T06:33:28.749Z,92.30
2023-04-28T06:35:57.036Z,92.60
2023-04-28T06:38:25.384Z,92.90
2023-04-28T06:40:53.532Z,93.00
2023-04-28T06:43:21.986Z,92.60
2023-04-28T06:46:14.631Z,92.40
2023-04-28T06:48:44.224Z,93.00
2023-04-28T06:51:12.529Z,93.00
2023-04-28T06:53:40.801Z,93.60
2023-04-28T06:56:11.396Z,93.60
2023-04-28T06:58:40.092Z,93.50
2023-04-28T07:01:08.287Z,93.60
2023-04-28T07:03:38.962Z,93.80
2023-04-28T07:06:07.617Z,94.60
2023-04-28T07:08:36.555Z,94.50
2023-04-28T07:11:05.167Z,94.50
2023-04-28T07:13:33.489Z,95.00
2023-04-28T07:16:01.751Z,95.40
2023-04-28T07:18:29.991Z,95.70
2023-04-28T07:20:59.620Z,96.00
2023-04-28T07:23:27.884Z,96.60
2023-04-28T07:25:56.166Z,97.00
2023-04-28T07:28:24.376Z,98.00
2023-04-28T07:30:52.579Z,98.60
2023-04-28T07:33:20.958Z,98.70
2023-04-28T07:35:49.696Z,98.40
2023-04-28T07:38:20.523Z,98.30
2023-04-28T07:40:48.831Z,98.40
2023-04-28T07:43:16.919Z,98.50
2023-04-28T07:45:49.044Z,98.90
2023-04-28T07:48:17.624Z,99.60
2023-04-28T07:50:45.923Z,99.90
2023-04-28T07:53:14.223Z,99.80
2023-04-28T07:55:44.767Z,99.70
2023-04-28T07:58:13.210Z,99.90
2023-04-28T08:00:41.384Z,99.90
2023-04-28T08:03:09.684Z,99.90
2023-04-28T08:05:39.672Z,99.90
2023-04-28T08:08:07.866Z,99.90
2023-04-28T08:10:36.067Z,99.90
2023-04-28T08:13:05.623Z,99.90
2023-04-28T08:15:33.815Z,99.90
2023-04-28T08:18:02.150Z,99.90
2023-04-28T08:20:32.475Z,99.90
2023-04-28T08:23:00.965Z,99.90
2023-04-28T08:25:29.143Z,99.90
2023-04-28T08:27:58.766Z,99.90
2023-04-28T08:30:28.334Z,99.90
2023-04-28T08:32:56.651Z,99.90
2023-04-28T08:35:25.017Z,99.90
2023-04-28T08:37:53.820Z,99.90
2023-04-28T08:40:22.232Z,99.90
2023-04-28T08:42:50.639Z,99.90
2023-04-28T08:45:18.794Z,99.90
2023-04-28T08:47:53.114Z,99.90
2023-04-28T08:50:23.536Z,99.90
2023-04-28T08:52:54.238Z,99.90
2023-04-28T08:55:22.702Z,99.90
2023-04-28T08:57:52.675Z,99.90
2023-04-28T09:00:20.794Z,99.90
2023-04-28T09:02:53.035Z,99.90
2023-04-28T09:05:22.130Z,99.90
2023-04-28T09:07:52.053Z,99.90
2023-04-28T09:10:22.180Z,99.90
2023-04-28T09:12:54.207Z,99.90
2023-04-28T09:15:33.186Z,99.90
2023-04-28T09:18:04.143Z,99.90
2023-04-28T09:20:33.314Z,99.90
2023-04-28T09:23:18.490Z,99.90
2023-04-28T09:26:01.356Z,99.90
2023-04-28T09:28:29.564Z,99.90
2023-04-28T09:30:57.729Z,99.90
2023-04-28T09:33:27.810Z,99.90
2023-04-28T09:35:56.212Z,99.90
2023-04-28T09:38:24.906Z,99.90
2023-04-28T09:40:58.348Z,99.90
2023-04-28T09:43:28.461Z,99.90
2023-04-28T09:45:57.447Z,99.90
2023-04-28T09:48:32.381Z,99.90
2023-04-28T09:51:02.037Z,99.90
2023-04-28T09:53:31.251Z,99.90
2023-04-28T09:56:01.796Z,99.90
2023-04-28T09:58:32.276Z,99.90
2023-04-28T10:01:01.992Z,99.90
2023-04-28T10:03:32.530Z,99.90
2023-04-28T10:06:01.208Z,99.90
2023-04-28T10:08:29.638Z,99.90
2023-04-28T10:10:58.620Z,99.90
2023-04-28T10:13:27.088Z,99.90
2023-04-28T10:15:58.316Z,99.90
2023-04-28T10:18:27.081Z,99.90
2023-04-28T10:20:59.588Z,99.90
2023-04-28T10:24:00.487Z,99.30
2023-04-28T10:27:03.426Z,99.50
2023-04-28T10:29:33.600Z,98.20
2023-04-28T10:32:33.127Z,96.90
2023-04-28T10:35:36.416Z,97.30
2023-04-28T10:38:10.987Z,98.00
2023-04-28T10:40:40.850Z,97.60
2023-04-28T10:43:10.062Z,98.00
2023-04-28T10:46:02.109Z,98.00
2023-04-28T10:48:56.291Z,95.80
2023-04-28T10:51:31.924Z,95.10
2023-04-28T10:54:12.350Z,95.00
2023-04-28T10:56:42.064Z,95.30
2023-04-28T10:59:28.559Z,96.00
2023-04-28T11:01:56.887Z,95.90
2023-04-28T11:04:25.555Z,94.80
2023-04-28T11:07:13.765Z,95.40
2023-04-28T11:09:53.753Z,93.50
2023-04-28T11:12:22.303Z,93.70
2023-04-28T11:14:50.369Z,94.40
2023-04-28T11:17:19.588Z,90.60
2023-04-28T11:19:48.716Z,91.40
2023-04-28T11:22:18.716Z,91.40
2023-04-28T11:24:58.943Z,87.60
2023-04-28T11:27:28.143Z,88.60
2023-04-28T11:29:56.790Z,88.60
2023-04-28T11:32:29.763Z,89.40
2023-04-28T11:34:58.766Z,88.20
2023-04-28T11:37:27.457Z,88.20
2023-04-28T11:39:57.494Z,87.90
2023-04-28T11:42:28.230Z,87.90
2023-04-28T11:44:56.459Z,87.30
2023-04-28T11:47:32.565Z,91.30
2023-04-28T11:50:01.375Z,89.90
2023-04-28T11:52:29.682Z,91.80
2023-04-28T11:55:02.423Z,92.80
2023-04-28T11:57:30.958Z,93.10
2023-04-28T12:00:14.936Z,95.00
2023-04-28T12:02:43.979Z,94.10
2023-04-28T12:05:12.938Z,93.90
2023-04-28T12:07:45.664Z,92.90
2023-04-28T12:10:21.049Z,92.30
2023-04-28T12:12:52.525Z,93.60
2023-04-28T12:15:22.910Z,95.20
2023-04-28T12:17:52.018Z,95.20
2023-04-28T12:20:36.460Z,92.50
2023-04-28T12:23:05.494Z,91.40
2023-04-28T12:25:43.992Z,91.30
2023-04-28T12:28:12.117Z,91.80
2023-04-28T12:30:42.744Z,91.50
2023-04-28T12:33:24.686Z,89.50
2023-04-28T12:35:53.998Z,90.30
2023-04-28T12:38:22.586Z,91.00
2023-04-28T12:40:52.404Z,91.10
2023-04-28T12:43:23.099Z,90.90
2023-04-28T12:45:53.564Z,89.00
2023-04-28T12:48:23.748Z,90.40
2023-04-28T12:50:52.075Z,90.20
2023-04-28T12:53:20.315Z,91.10
2023-04-28T12:55:48.909Z,91.70
2023-04-28T12:58:18.489Z,91.30
2023-04-28T13:00:46.619Z,91.40
2023-04-28T13:03:16.001Z,91.40
2023-04-28T13:05:44.451Z,91.20
2023-04-28T13:08:12.935Z,91.40
2023-04-28T13:10:42.068Z,90.50
2023-04-28T13:13:10.424Z,91.40
2023-04-28T13:15:40.424Z,92.70
2023-04-28T13:18:08.817Z,93.60
2023-04-28T13:20:37.265Z,93.50
2023-04-28T13:23:05.624Z,92.20
2023-04-28T13:25:34.073Z,93.00
2023-04-28T13:28:02.368Z,92.70
2023-04-28T13:30:30.516Z,93.00
2023-04-28T13:33:00.128Z,93.50
2023-04-28T13:35:28.569Z,93.80
2023-04-28T13:38:02.116Z,93.10
2023-04-28T13:40:30.609Z,93.90
2023-04-28T13:42:58.748Z,95.20
2023-04-28T13:45:28.723Z,95.70
2023-04-28T13:47:57.025Z,95.30
2023-04-28T13:50:26.944Z,95.20
2023-04-28T13:52:55.222Z,95.60
2023-04-28T13:55:28.276Z,96.50
2023-04-28T13:57:56.740Z,97.10
2023-04-28T14:00:25.435Z,98.10
2023-04-28T14:02:53.793Z,97.40
2023-04-28T14:05:22.286Z,98.60
2023-04-28T14:07:51.907Z,98.10
2023-04-28T14:10:20.463Z,98.70
2023-04-28T14:12:49.132Z,98.20
2023-04-28T14:15:17.962Z,98.00
2023-04-28T14:17:46.102Z,98.20
2023-04-28T14:20:14.649Z,99.10
2023-04-28T14:22:42.766Z,98.30
2023-04-28T14:25:12.740Z,98.00
2023-04-28T14:27:41.036Z,97.80
2023-04-28T14:30:10.355Z,98.00
2023-04-28T14:32:40.035Z,98.20
2023-04-28T14:35:09.611Z,98.50
2023-04-28T14:37:38.356Z,98.50
2023-04-28T14:40:08.008Z,98.60
2023-04-28T14:42:38.275Z,99.30
2023-04-28T14:45:08.794Z,99.70
2023-04-28T14:47:40.431Z,99.90
2023-04-28T14:50:11.432Z,99.90
2023-04-28T14:52:42.477Z,99.70
2023-04-28T14:55:11.333Z,99.80
2023-04-28T14:57:40.893Z,99.40
2023-04-28T15:00:10.086Z,99.20
2023-04-28T15:02:38.862Z,99.20
2023-04-28T15:05:08.043Z,99.40
2023-04-28T15:07:36.382Z,99.60
2023-04-28T15:10:04.657Z,99.60
2023-04-28T15:12:34.490Z,99.20
2023-04-28T15:15:04.112Z,99.00
2023-04-28T15:17:32.478Z,99.30
2023-04-28T15:20:00.833Z,99.60
2023-04-28T15:22:29.104Z,99.90
2023-04-28T15:24:57.430Z,99.30
2023-04-28T15:27:25.640Z,99.60
2023-04-28T15:29:54.079Z,99.20
2023-04-28T15:32:23.960Z,98.80
2023-04-28T15:34:52.910Z,99.00
2023-04-28T15:37:43.247Z,99.50
2023-04-28T15:40:12.768Z,99.60
2023-04-28T15:42:42.262Z,98.60
2023-04-28T15:45:12.013Z,98.50
2023-04-28T15:47:42.837Z,98.20
2023-04-28T15:50:12.362Z,97.00
2023-04-28T15:52:46.171Z,99.90
2023-04-28T15:55:15.148Z,99.20
2023-04-28T15:57:44.380Z,99.90
2023-04-28T16:00:14.866Z,99.90
2023-04-28T16:02:45.365Z,99.90
2023-04-28T16:05:14.124Z,99.90
2023-04-28T16:07:42.607Z,99.90
2023-04-28T16:10:12.491Z,99.90
2023-04-28T16:12:41.917Z,99.90
2023-04-28T16:15:12.899Z,99.90
2023-04-28T16:17:42.455Z,99.90
2023-04-28T16:20:12.930Z,99.90
2023-04-28T16:22:42.193Z,99.90
2023-04-28T16:25:11.525Z,99.90
2023-04-28T16:27:41.361Z,99.90
2023-04-28T16:30:10.628Z,99.90
2023-04-28T16:32:40.521Z,99.90
2023-04-28T16:35:14.526Z,99.90
2023-04-28T16:37:45.106Z,99.90
2023-04-28T16:40:14.199Z,99.90
2023-04-28T16:42:43.555Z,99.90
2023-04-28T16:45:13.146Z,99.90
2023-04-28T16:47:43.767Z,99.90
2023-04-28T16:50:14.532Z,99.90
2023-04-28T16:52:44.167Z,99.90
2023-04-28T16:55:12.610Z,99.90
2023-04-28T16:57:41.529Z,99.90
2023-04-28T17:00:11.293Z,99.90
2023-04-28T17:02:39.588Z,99.90
2023-04-28T17:05:08.616Z,99.90
2023-04-28T17:07:36.901Z,99.90
2023-04-28T17:10:10.220Z,99.90
2023-04-28T17:12:39.714Z,99.90
2023-04-28T17:15:09.454Z,99.90
2023-04-28T17:17:37.861Z,99.90
2023-04-28T17:20:07.017Z,99.90
2023-04-28T17:22:35.894Z,99.90
2023-04-28T17:25:04.573Z,99.90
2023-04-28T17:27:34.670Z,99.90
2023-04-28T17:30:02.892Z,99.90
2023-04-28T17:32:33.302Z,99.90
2023-04-28T17:35:01.546Z,99.90
2023-04-28T17:37:30.903Z,99.90
2023-04-28T17:39:59.416Z,99.90
2023-04-28T17:42:30.996Z,99.90
2023-04-28T17:45:01.686Z,99.90
2023-04-28T17:47:29.803Z,99.90
2023-04-28T17:49:58.122Z,99.90
2023-04-28T17:52:26.468Z,99.90
2023-04-28T17:54:54.783Z,99.90
2023-04-28T17:57:23.005Z,99.90
2023-04-28T17:59:51.424Z,99.90
2023-04-28T18:02:21.582Z,99.90
2023-04-28T18:04:50.784Z,99.90
2023-04-28T18:07:19.336Z,99.90
2023-04-28T18:09:47.533Z,99.90
2023-04-28T18:12:15.776Z,99.90
2023-04-28T18:14:44.382Z,99.90
2023-04-28T18:17:12.810Z,99.90
2023-04-28T18:19:42.370Z,99.90
2023-04-28T18:22:10.528Z,99.90
2023-04-28T18:24:38.747Z,99.90
2023-04-28T18:27:07.246Z,99.80
2023-04-28T18:29:35.413Z,98.90
2023-04-28T18:32:03.667Z,98.40
2023-04-28T18:34:31.863Z,98.30
2023-04-28T18:37:01.491Z,97.90
2023-04-28T18:39:29.620Z,97.80
2023-04-28T18:41:58.889Z,97.60
2023-04-28T18:44:27.255Z,98.20
2023-04-28T18:46:55.645Z,97.60
2023-04-28T18:49:24.855Z,97.50
2023-04-28T18:51:53.101Z,97.40
2023-04-28T18:54:22.815Z,97.40
2023-04-28T18:56:52.565Z,97.40
2023-04-28T18:59:21.057Z,97.30
2023-04-28T19:01:49.505Z,97.10
2023-04-28T19:04:17.860Z,96.80
2023-04-28T19:06:46.231Z,96.80
2023-04-28T19:09:14.525Z,96.90
2023-04-28T19:11:44.120Z,97.10
2023-04-28T19:14:12.256Z,98.00
2023-04-28T19:16:40.387Z,97.10
2023-04-28T19:19:09.692Z,98.10
2023-04-28T19:21:44.453Z,98.90
2023-04-28T19:24:12.737Z,97.90
2023-04-28T19:26:41.413Z,97.30
2023-04-28T19:29:13.980Z,96.80
2023-04-28T19:31:42.116Z,96.30
2023-04-28T19:34:10.366Z,96.20
2023-04-28T19:36:38.724Z,95.90
2023-04-28T19:39:08.312Z,97.00
2023-04-28T19:41:36.984Z,96.90
2023-04-28T19:44:05.437Z,97.30
2023-04-28T19:46:35.912Z,96.90
2023-04-28T19:49:04.256Z,96.20
2023-04-28T19:51:33.023Z,95.20
2023-04-28T19:54:01.410Z,95.20
2023-04-28T19:56:30.287Z,94.10
2023-04-28T19:58:58.760Z,94.60
2023-04-28T20:01:27.074Z,93.50
2023-04-28T20:03:56.907Z,93.50
2023-04-28T20:06:25.160Z,94.10
2023-04-28T20:08:53.424Z,93.40
2023-04-28T20:11:21.564Z,93.60
2023-04-28T20:13:49.723Z,93.70
2023-04-28T20:16:20.319Z,94.10
2023-04-28T20:18:48.793Z,94.30
2023-04-28T20:21:19.130Z,94.60
2023-04-28T20:23:49.583Z,96.80
2023-04-28T20:26:17.891Z,97.30
2023-04-28T20:28:48.520Z,97.90
2023-04-28T20:31:16.886Z,96.50
2023-04-28T20:33:45.185Z,96.10
2023-04-28T20:36:14.128Z,95.00
2023-04-28T20:38:44.013Z,94.80
2023-04-28T20:41:12.544Z,94.90
2023-04-28T20:43:41.471Z,94.40
2023-04-28T20:46:11.357Z,93.50
2023-04-28T20:48:39.615Z,93.30
2023-04-28T20:51:08.115Z,93.80
2023-04-28T20:53:36.610Z,93.10
2023-04-28T20:56:06.401Z,93.00
2023-04-28T20:58:35.436Z,93.30
2023-04-28T21:01:03.637Z,93.30
2023-04-28T21:03:32.001Z,93.00
2023-04-28T21:06:00.473Z,93.30
2023-04-28T21:08:29.776Z,93.50
2023-04-28T21:10:58.311Z,93.90
2023-04-28T21:13:27.874Z,94.50
2023-04-28T21:15:56.276Z,95.00
2023-04-28T21:18:24.472Z,95.10
2023-04-28T21:20:54.722Z,95.40
2023-04-28T21:23:22.975Z,95.40
2023-04-28T21:25:51.242Z,95.30
2023-04-28T21:28:19.420Z,95.90
2023-04-28T21:30:52.630Z,94.50
2023-04-28T21:33:22.168Z,94.00
2023-04-28T21:35:51.016Z,93.70
2023-04-28T21:38:19.238Z,93.40
2023-04-28T21:40:48.054Z,93.40
2023-04-28T21:43:16.499Z,93.70
2023-04-28T21:45:45.105Z,93.90
2023-04-28T21:48:16.333Z,93.90
2023-04-28T21:50:44.685Z,93.80
2023-04-28T21:53:13.226Z,93.70
2023-04-28T21:55:41.982Z,94.50
2023-04-28T21:58:10.352Z,95.00
2023-04-28T22:00:40.638Z,95.90
2023-04-28T22:03:09.123Z,96.20
2023-04-28T22:05:38.840Z,96.60
2023-04-28T22:08:07.153Z,98.00
2023-04-28T22:10:36.443Z,98.60
2023-04-28T22:13:05.233Z,98.90
2023-04-28T22:15:33.596Z,98.70
2023-04-28T22:18:01.940Z,98.70
2023-04-28T22:20:30.407Z,99.00
2023-04-28T22:23:00.510Z,99.20
2023-04-28T22:25:28.921Z,99.30
2023-04-28T22:27:57.108Z,99.30
2023-04-28T22:30:26.311Z,99.10
2023-04-28T22:32:54.689Z,98.80
2023-04-28T22:35:22.916Z,98.30
2023-04-28T22:37:51.202Z,98.00
2023-04-28T22:40:21.731Z,97.60
2023-04-28T22:42:50.228Z,97.00
2023-04-28T22:45:18.747Z,96.60
2023-04-28T22:47:47.097Z,97.80
2023-04-28T22:50:15.213Z,97.80
2023-04-28T22:52:43.332Z,96.70
2023-04-28T22:55:12.703Z,95.80
2023-04-28T22:57:42.397Z,94.80
2023-04-28T23:00:11.732Z,94.10
2023-04-28T23:02:39.929Z,93.50
2023-04-28T23:05:08.615Z,93.60
2023-04-28T23:07:37.095Z,93.90
2023-04-28T23:10:06.927Z,94.20
2023-04-28T23:12:35.530Z,94.50
2023-04-28T23:15:06.112Z,94.50
2023-04-28T23:17:34.344Z,94.90
2023-04-28T23:20:02.520Z,95.30
2023-04-28T23:22:30.649Z,95.30
2023-04-28T23:24:58.865Z,95.30
2023-04-28T23:27:38.014Z,95.40
2023-04-28T23:30:09.725Z,95.50
2023-04-28T23:32:38.743Z,95.50
2023-04-28T23:35:07.355Z,95.60
2023-04-28T23:37:35.697Z,95.80
2023-04-28T23:40:04.244Z,96.00
2023-04-28T23:42:32.520Z,96.00
2023-04-28T23:45:01.485Z,96.20
2023-04-28T23:47:31.069Z,96.50
2023-04-28T23:49:59.264Z,96.70
2023-04-28T23:52:27.446Z,96.60
2023-04-28T23:54:55.659Z,96.70
2023-04-28T23:57:24.136Z,96.90
2023-04-28T23:59:52.610Z,97.50
